sensor_id;sensor_type;location;lat;lon;timestamp;P1;durP1;ratioP1;P2;durP2;ratioP2
33022;SDS011;19390;51.460;5.710;2023-05-07T00:00:19;15.00;;;11.68;;
33022;SDS011;19390;51.460;5.710;2023-05-07T00:02:45;14.52;;;11.70;;
33022;SDS011;19390;51.460;5.710;2023-05-07T00:05:11;12.98;;;11.63;;
33022;SDS011;19390;51.460;5.710;2023-05-07T00:07:37;15.77;;;13.13;;
33022;SDS011;19390;51.460;5.710;2023-05-07T00:10:03;13.80;;;12.40;;
33022;SDS011;19390;51.460;5.710;2023-05-07T00:12:29;12.05;;;10.75;;
33022;SDS011;19390;51.460;5.710;2023-05-07T00:14:58;13.55;;;11.70;;
33022;SDS011;19390;51.460;5.710;2023-05-07T00:17:27;17.98;;;13.93;;
33022;SDS011;19390;51.460;5.710;2023-05-07T00:19:53;12.00;;;10.50;;
33022;SDS011;19390;51.460;5.710;2023-05-07T00:22:18;14.50;;;12.93;;
33022;SDS011;19390;51.460;5.710;2023-05-07T00:24:44;14.40;;;12.95;;
33022;SDS011;19390;51.460;5.710;2023-05-07T00:27:10;13.23;;;11.77;;
33022;SDS011;19390;51.460;5.710;2023-05-07T00:29:35;15.43;;;12.98;;
33022;SDS011;19390;51.460;5.710;2023-05-07T00:32:01;12.48;;;11.20;;
33022;SDS011;19390;51.460;5.710;2023-05-07T00:34:27;14.82;;;13.05;;
33022;SDS011;19390;51.460;5.710;2023-05-07T00:36:52;15.07;;;12.55;;
33022;SDS011;19390;51.460;5.710;2023-05-07T00:39:18;14.18;;;12.75;;
33022;SDS011;19390;51.460;5.710;2023-05-07T00:41:44;18.17;;;16.42;;
33022;SDS011;19390;51.460;5.710;2023-05-07T00:44:09;15.73;;;14.10;;
33022;SDS011;19390;51.460;5.710;2023-05-07T00:46:35;13.50;;;12.20;;
33022;SDS011;19390;51.460;5.710;2023-05-07T00:49:01;16.63;;;14.50;;
33022;SDS011;19390;51.460;5.710;2023-05-07T00:51:27;18.50;;;16.70;;
33022;SDS011;19390;51.460;5.710;2023-05-07T00:53:53;22.35;;;18.27;;
33022;SDS011;19390;51.460;5.710;2023-05-07T00:56:20;17.95;;;16.15;;
33022;SDS011;19390;51.460;5.710;2023-05-07T00:58:47;19.98;;;17.80;;
33022;SDS011;19390;51.460;5.710;2023-05-07T01:01:13;16.80;;;15.18;;
33022;SDS011;19390;51.460;5.710;2023-05-07T01:03:41;19.38;;;17.00;;
33022;SDS011;19390;51.460;5.710;2023-05-07T01:06:07;21.67;;;19.40;;
33022;SDS011;19390;51.460;5.710;2023-05-07T01:08:34;20.77;;;18.67;;
33022;SDS011;19390;51.460;5.710;2023-05-07T01:11:00;19.92;;;17.85;;
33022;SDS011;19390;51.460;5.710;2023-05-07T01:13:27;19.17;;;17.17;;
33022;SDS011;19390;51.460;5.710;2023-05-07T01:15:53;21.10;;;18.90;;
33022;SDS011;19390;51.460;5.710;2023-05-07T01:18:18;21.88;;;18.98;;
33022;SDS011;19390;51.460;5.710;2023-05-07T01:20:44;24.40;;;19.90;;
33022;SDS011;19390;51.460;5.710;2023-05-07T01:23:10;23.23;;;20.77;;
33022;SDS011;19390;51.460;5.710;2023-05-07T01:25:36;20.08;;;17.80;;
33022;SDS011;19390;51.460;5.710;2023-05-07T01:28:02;20.95;;;18.85;;
33022;SDS011;19390;51.460;5.710;2023-05-07T01:30:28;17.20;;;15.60;;
33022;SDS011;19390;51.460;5.710;2023-05-07T01:33:02;20.33;;;18.25;;
33022;SDS011;19390;51.460;5.710;2023-05-07T01:35:36;24.83;;;22.33;;
33022;SDS011;19390;51.460;5.710;2023-05-07T01:38:07;26.33;;;23.52;;
33022;SDS011;19390;51.460;5.710;2023-05-07T01:40:33;31.85;;;25.63;;
33022;SDS011;19390;51.460;5.710;2023-05-07T01:42:59;29.33;;;25.63;;
33022;SDS011;19390;51.460;5.710;2023-05-07T01:45:29;29.55;;;26.35;;
33022;SDS011;19390;51.460;5.710;2023-05-07T01:47:58;27.40;;;23.98;;
33022;SDS011;19390;51.460;5.710;2023-05-07T01:50:24;28.55;;;24.70;;
33022;SDS011;19390;51.460;5.710;2023-05-07T01:52:50;31.83;;;28.23;;
33022;SDS011;19390;51.460;5.710;2023-05-07T01:55:16;28.75;;;25.63;;
33022;SDS011;19390;51.460;5.710;2023-05-07T01:57:42;27.13;;;24.40;;
33022;SDS011;19390;51.460;5.710;2023-05-07T02:00:07;27.10;;;24.33;;
33022;SDS011;19390;51.460;5.710;2023-05-07T02:02:34;29.88;;;26.40;;
33022;SDS011;19390;51.460;5.710;2023-05-07T02:05:00;24.30;;;21.67;;
33022;SDS011;19390;51.460;5.710;2023-05-07T02:07:26;35.42;;;28.33;;
33022;SDS011;19390;51.460;5.710;2023-05-07T02:09:52;26.58;;;23.45;;
33022;SDS011;19390;51.460;5.710;2023-05-07T02:12:18;31.48;;;28.15;;
33022;SDS011;19390;51.460;5.710;2023-05-07T02:14:44;33.22;;;28.58;;
33022;SDS011;19390;51.460;5.710;2023-05-07T02:17:09;31.00;;;27.75;;
33022;SDS011;19390;51.460;5.710;2023-05-07T02:19:35;30.42;;;27.35;;
33022;SDS011;19390;51.460;5.710;2023-05-07T02:22:01;29.88;;;26.77;;
33022;SDS011;19390;51.460;5.710;2023-05-07T02:24:26;29.20;;;26.23;;
33022;SDS011;19390;51.460;5.710;2023-05-07T02:26:52;33.97;;;30.35;;
33022;SDS011;19390;51.460;5.710;2023-05-07T02:29:17;31.98;;;28.77;;
33022;SDS011;19390;51.460;5.710;2023-05-07T02:31:43;28.27;;;25.38;;
33022;SDS011;19390;51.460;5.710;2023-05-07T02:34:08;31.33;;;28.13;;
33022;SDS011;19390;51.460;5.710;2023-05-07T02:36:34;30.85;;;27.63;;
33022;SDS011;19390;51.460;5.710;2023-05-07T02:39:00;31.88;;;28.48;;
33022;SDS011;19390;51.460;5.710;2023-05-07T02:41:25;30.20;;;26.98;;
33022;SDS011;19390;51.460;5.710;2023-05-07T02:43:53;31.20;;;27.80;;
33022;SDS011;19390;51.460;5.710;2023-05-07T02:46:18;31.55;;;28.17;;
33022;SDS011;19390;51.460;5.710;2023-05-07T02:48:44;34.05;;;30.55;;
33022;SDS011;19390;51.460;5.710;2023-05-07T02:51:09;31.92;;;28.63;;
33022;SDS011;19390;51.460;5.710;2023-05-07T02:53:35;33.70;;;30.00;;
33022;SDS011;19390;51.460;5.710;2023-05-07T02:56:01;35.85;;;32.05;;
33022;SDS011;19390;51.460;5.710;2023-05-07T02:58:27;31.23;;;27.10;;
33022;SDS011;19390;51.460;5.710;2023-05-07T03:00:53;33.22;;;29.80;;
33022;SDS011;19390;51.460;5.710;2023-05-07T03:03:22;28.45;;;25.42;;
33022;SDS011;19390;51.460;5.710;2023-05-07T03:05:47;30.85;;;27.75;;
33022;SDS011;19390;51.460;5.710;2023-05-07T03:08:13;28.25;;;25.40;;
33022;SDS011;19390;51.460;5.710;2023-05-07T03:10:39;29.27;;;26.27;;
33022;SDS011;19390;51.460;5.710;2023-05-07T03:13:05;30.23;;;27.08;;
33022;SDS011;19390;51.460;5.710;2023-05-07T03:15:30;31.42;;;28.33;;
33022;SDS011;19390;51.460;5.710;2023-05-07T03:17:56;28.70;;;25.77;;
33022;SDS011;19390;51.460;5.710;2023-05-07T03:20:22;30.10;;;26.98;;
33022;SDS011;19390;51.460;5.710;2023-05-07T03:22:47;29.90;;;26.80;;
33022;SDS011;19390;51.460;5.710;2023-05-07T03:25:13;27.65;;;24.92;;
33022;SDS011;19390;51.460;5.710;2023-05-07T03:27:39;30.73;;;27.65;;
33022;SDS011;19390;51.460;5.710;2023-05-07T03:30:07;38.55;;;33.75;;
33022;SDS011;19390;51.460;5.710;2023-05-07T03:32:33;33.70;;;30.25;;
33022;SDS011;19390;51.460;5.710;2023-05-07T03:35:00;30.58;;;27.58;;
33022;SDS011;19390;51.460;5.710;2023-05-07T03:37:26;36.05;;;32.15;;
33022;SDS011;19390;51.460;5.710;2023-05-07T03:39:51;40.67;;;33.85;;
33022;SDS011;19390;51.460;5.710;2023-05-07T03:42:17;43.97;;;37.42;;
33022;SDS011;19390;51.460;5.710;2023-05-07T03:44:43;35.78;;;30.10;;
33022;SDS011;19390;51.460;5.710;2023-05-07T03:47:08;34.42;;;30.70;;
33022;SDS011;19390;51.460;5.710;2023-05-07T03:49:35;35.40;;;31.60;;
33022;SDS011;19390;51.460;5.710;2023-05-07T03:52:01;39.63;;;35.40;;
33022;SDS011;19390;51.460;5.710;2023-05-07T03:54:26;37.35;;;33.50;;
33022;SDS011;19390;51.460;5.710;2023-05-07T03:56:52;42.50;;;37.13;;
33022;SDS011;19390;51.460;5.710;2023-05-07T03:59:17;41.20;;;36.47;;
33022;SDS011;19390;51.460;5.710;2023-05-07T04:01:43;38.38;;;34.05;;
33022;SDS011;19390;51.460;5.710;2023-05-07T04:04:08;38.55;;;33.88;;
33022;SDS011;19390;51.460;5.710;2023-05-07T04:06:34;39.67;;;35.45;;
33022;SDS011;19390;51.460;5.710;2023-05-07T04:09:00;39.95;;;35.75;;
33022;SDS011;19390;51.460;5.710;2023-05-07T04:11:25;39.67;;;34.58;;
33022;SDS011;19390;51.460;5.710;2023-05-07T04:13:52;37.80;;;32.95;;
33022;SDS011;19390;51.460;5.710;2023-05-07T04:16:18;36.47;;;32.63;;
33022;SDS011;19390;51.460;5.710;2023-05-07T04:18:43;41.05;;;36.58;;
33022;SDS011;19390;51.460;5.710;2023-05-07T04:21:19;37.28;;;33.35;;
33022;SDS011;19390;51.460;5.710;2023-05-07T04:23:48;38.58;;;32.45;;
33022;SDS011;19390;51.460;5.710;2023-05-07T04:26:14;35.55;;;31.75;;
33022;SDS011;19390;51.460;5.710;2023-05-07T04:28:41;29.80;;;26.70;;
33022;SDS011;19390;51.460;5.710;2023-05-07T04:31:07;35.35;;;31.67;;
33022;SDS011;19390;51.460;5.710;2023-05-07T04:33:33;38.53;;;34.50;;
33022;SDS011;19390;51.460;5.710;2023-05-07T04:36:02;40.70;;;35.80;;
33022;SDS011;19390;51.460;5.710;2023-05-07T04:38:29;36.45;;;31.05;;
33022;SDS011;19390;51.460;5.710;2023-05-07T04:40:55;36.75;;;32.75;;
33022;SDS011;19390;51.460;5.710;2023-05-07T04:43:22;40.25;;;35.95;;
33022;SDS011;19390;51.460;5.710;2023-05-07T04:45:47;35.83;;;31.83;;
33022;SDS011;19390;51.460;5.710;2023-05-07T04:48:14;32.65;;;29.35;;
33022;SDS011;19390;51.460;5.710;2023-05-07T04:50:40;30.23;;;27.10;;
33022;SDS011;19390;51.460;5.710;2023-05-07T04:53:06;36.63;;;32.70;;
33022;SDS011;19390;51.460;5.710;2023-05-07T04:55:31;34.20;;;30.50;;
33022;SDS011;19390;51.460;5.710;2023-05-07T04:57:57;30.63;;;27.40;;
33022;SDS011;19390;51.460;5.710;2023-05-07T05:00:23;29.35;;;26.23;;
33022;SDS011;19390;51.460;5.710;2023-05-07T05:02:48;28.27;;;25.42;;
33022;SDS011;19390;51.460;5.710;2023-05-07T05:05:14;32.28;;;28.83;;
33022;SDS011;19390;51.460;5.710;2023-05-07T05:07:40;30.52;;;27.45;;
33022;SDS011;19390;51.460;5.710;2023-05-07T05:10:05;28.40;;;24.77;;
33022;SDS011;19390;51.460;5.710;2023-05-07T05:12:31;26.92;;;24.20;;
33022;SDS011;19390;51.460;5.710;2023-05-07T05:14:57;24.42;;;21.95;;
33022;SDS011;19390;51.460;5.710;2023-05-07T05:17:22;25.70;;;22.98;;
33022;SDS011;19390;51.460;5.710;2023-05-07T05:19:48;24.77;;;21.90;;
33022;SDS011;19390;51.460;5.710;2023-05-07T05:22:13;25.10;;;22.50;;
33022;SDS011;19390;51.460;5.710;2023-05-07T05:24:40;23.83;;;21.33;;
33022;SDS011;19390;51.460;5.710;2023-05-07T05:27:05;30.02;;;26.70;;
33022;SDS011;19390;51.460;5.710;2023-05-07T05:29:31;24.02;;;21.70;;
33022;SDS011;19390;51.460;5.710;2023-05-07T05:31:56;23.55;;;21.08;;
33022;SDS011;19390;51.460;5.710;2023-05-07T05:34:22;25.83;;;23.15;;
33022;SDS011;19390;51.460;5.710;2023-05-07T05:36:48;23.52;;;21.13;;
33022;SDS011;19390;51.460;5.710;2023-05-07T05:39:13;23.95;;;21.52;;
33022;SDS011;19390;51.460;5.710;2023-05-07T05:41:39;28.35;;;22.75;;
33022;SDS011;19390;51.460;5.710;2023-05-07T05:44:05;23.55;;;21.17;;
33022;SDS011;19390;51.460;5.710;2023-05-07T05:46:31;25.27;;;22.58;;
33022;SDS011;19390;51.460;5.710;2023-05-07T05:48:56;22.17;;;19.85;;
33022;SDS011;19390;51.460;5.710;2023-05-07T05:51:22;22.15;;;19.90;;
33022;SDS011;19390;51.460;5.710;2023-05-07T05:53:48;21.25;;;19.08;;
33022;SDS011;19390;51.460;5.710;2023-05-07T05:56:15;21.95;;;18.85;;
33022;SDS011;19390;51.460;5.710;2023-05-07T05:58:41;22.00;;;18.65;;
33022;SDS011;19390;51.460;5.710;2023-05-07T06:01:07;20.42;;;18.00;;
33022;SDS011;19390;51.460;5.710;2023-05-07T06:03:33;23.35;;;20.85;;
33022;SDS011;19390;51.460;5.710;2023-05-07T06:05:58;20.00;;;17.85;;
33022;SDS011;19390;51.460;5.710;2023-05-07T06:08:25;26.10;;;23.10;;
33022;SDS011;19390;51.460;5.710;2023-05-07T06:10:54;22.45;;;20.17;;
33022;SDS011;19390;51.460;5.710;2023-05-07T06:13:20;24.45;;;21.85;;
33022;SDS011;19390;51.460;5.710;2023-05-07T06:15:46;24.42;;;21.98;;
33022;SDS011;19390;51.460;5.710;2023-05-07T06:18:12;21.30;;;18.90;;
33022;SDS011;19390;51.460;5.710;2023-05-07T06:20:38;20.02;;;18.05;;
33022;SDS011;19390;51.460;5.710;2023-05-07T06:23:03;19.27;;;17.20;;
33022;SDS011;19390;51.460;5.710;2023-05-07T06:25:29;19.10;;;17.20;;
33022;SDS011;19390;51.460;5.710;2023-05-07T06:27:55;18.48;;;16.45;;
33022;SDS011;19390;51.460;5.710;2023-05-07T06:30:20;18.98;;;16.77;;
33022;SDS011;19390;51.460;5.710;2023-05-07T06:32:46;15.60;;;14.00;;
33022;SDS011;19390;51.460;5.710;2023-05-07T06:35:12;17.95;;;15.82;;
33022;SDS011;19390;51.460;5.710;2023-05-07T06:37:38;14.80;;;13.30;;
33022;SDS011;19390;51.460;5.710;2023-05-07T06:40:05;17.75;;;14.45;;
33022;SDS011;19390;51.460;5.710;2023-05-07T06:42:32;15.90;;;14.35;;
33022;SDS011;19390;51.460;5.710;2023-05-07T06:44:57;16.48;;;13.50;;
33022;SDS011;19390;51.460;5.710;2023-05-07T06:47:23;15.27;;;13.85;;
33022;SDS011;19390;51.460;5.710;2023-05-07T06:49:50;19.27;;;17.35;;
33022;SDS011;19390;51.460;5.710;2023-05-07T06:52:15;14.85;;;12.95;;
33022;SDS011;19390;51.460;5.710;2023-05-07T06:54:41;15.60;;;14.15;;
33022;SDS011;19390;51.460;5.710;2023-05-07T06:57:07;16.40;;;14.80;;
33022;SDS011;19390;51.460;5.710;2023-05-07T06:59:33;14.93;;;13.35;;
33022;SDS011;19390;51.460;5.710;2023-05-07T07:01:58;15.40;;;13.55;;
33022;SDS011;19390;51.460;5.710;2023-05-07T07:04:24;16.75;;;15.02;;
33022;SDS011;19390;51.460;5.710;2023-05-07T07:06:51;18.00;;;16.17;;
33022;SDS011;19390;51.460;5.710;2023-05-07T07:09:18;15.57;;;14.05;;
33022;SDS011;19390;51.460;5.710;2023-05-07T07:11:44;15.90;;;13.35;;
33022;SDS011;19390;51.460;5.710;2023-05-07T07:14:10;15.02;;;13.52;;
33022;SDS011;19390;51.460;5.710;2023-05-07T07:16:35;17.55;;;13.50;;
33022;SDS011;19390;51.460;5.710;2023-05-07T07:19:01;17.00;;;14.05;;
33022;SDS011;19390;51.460;5.710;2023-05-07T07:21:26;13.80;;;12.35;;
33022;SDS011;19390;51.460;5.710;2023-05-07T07:23:52;14.27;;;12.80;;
33022;SDS011;19390;51.460;5.710;2023-05-07T07:26:18;14.05;;;12.70;;
33022;SDS011;19390;51.460;5.710;2023-05-07T07:28:44;12.68;;;11.48;;
33022;SDS011;19390;51.460;5.710;2023-05-07T07:31:10;15.65;;;12.73;;
33022;SDS011;19390;51.460;5.710;2023-05-07T07:33:36;13.90;;;12.30;;
33022;SDS011;19390;51.460;5.710;2023-05-07T07:36:02;14.73;;;12.50;;
33022;SDS011;19390;51.460;5.710;2023-05-07T07:38:27;15.75;;;13.30;;
33022;SDS011;19390;51.460;5.710;2023-05-07T07:40:53;13.77;;;12.48;;
33022;SDS011;19390;51.460;5.710;2023-05-07T07:43:18;16.20;;;14.35;;
33022;SDS011;19390;51.460;5.710;2023-05-07T07:45:44;13.63;;;12.30;;
33022;SDS011;19390;51.460;5.710;2023-05-07T07:48:10;16.48;;;13.82;;
33022;SDS011;19390;51.460;5.710;2023-05-07T07:50:36;13.80;;;12.27;;
33022;SDS011;19390;51.460;5.710;2023-05-07T07:53:02;15.18;;;12.25;;
33022;SDS011;19390;51.460;5.710;2023-05-07T07:55:27;15.00;;;12.35;;
33022;SDS011;19390;51.460;5.710;2023-05-07T07:57:53;13.35;;;12.00;;
33022;SDS011;19390;51.460;5.710;2023-05-07T08:00:19;13.13;;;11.55;;
33022;SDS011;19390;51.460;5.710;2023-05-07T08:02:44;15.45;;;13.80;;
33022;SDS011;19390;51.460;5.710;2023-05-07T08:05:10;13.40;;;10.93;;
33022;SDS011;19390;51.460;5.710;2023-05-07T08:07:36;12.27;;;11.07;;
33022;SDS011;19390;51.460;5.710;2023-05-07T08:10:01;10.98;;;9.32;;
33022;SDS011;19390;51.460;5.710;2023-05-07T08:12:27;12.27;;;10.68;;
33022;SDS011;19390;51.460;5.710;2023-05-07T08:14:53;11.23;;;10.10;;
33022;SDS011;19390;51.460;5.710;2023-05-07T08:17:18;11.57;;;10.18;;
33022;SDS011;19390;51.460;5.710;2023-05-07T08:19:47;11.95;;;10.07;;
33022;SDS011;19390;51.460;5.710;2023-05-07T08:22:12;11.57;;;10.38;;
33022;SDS011;19390;51.460;5.710;2023-05-07T08:24:38;9.52;;;8.57;;
33022;SDS011;19390;51.460;5.710;2023-05-07T08:27:04;10.55;;;8.25;;
33022;SDS011;19390;51.460;5.710;2023-05-07T08:29:30;10.85;;;9.82;;
33022;SDS011;19390;51.460;5.710;2023-05-07T08:31:56;9.60;;;8.70;;
33022;SDS011;19390;51.460;5.710;2023-05-07T08:34:21;12.77;;;10.38;;
33022;SDS011;19390;51.460;5.710;2023-05-07T08:36:47;10.80;;;9.68;;
33022;SDS011;19390;51.460;5.710;2023-05-07T08:39:13;11.02;;;9.85;;
33022;SDS011;19390;51.460;5.710;2023-05-07T08:41:45;11.90;;;10.73;;
33022;SDS011;19390;51.460;5.710;2023-05-07T08:44:13;13.05;;;9.65;;
33022;SDS011;19390;51.460;5.710;2023-05-07T08:46:41;12.18;;;10.82;;
33022;SDS011;19390;51.460;5.710;2023-05-07T08:49:11;12.25;;;10.00;;
33022;SDS011;19390;51.460;5.710;2023-05-07T08:51:37;10.27;;;9.07;;
33022;SDS011;19390;51.460;5.710;2023-05-07T08:54:02;11.18;;;9.40;;
33022;SDS011;19390;51.460;5.710;2023-05-07T08:56:29;11.77;;;9.93;;
33022;SDS011;19390;51.460;5.710;2023-05-07T08:58:55;11.95;;;10.80;;
33022;SDS011;19390;51.460;5.710;2023-05-07T09:01:23;11.20;;;9.63;;
33022;SDS011;19390;51.460;5.710;2023-05-07T09:03:50;11.20;;;9.30;;
33022;SDS011;19390;51.460;5.710;2023-05-07T09:06:16;10.75;;;9.73;;
33022;SDS011;19390;51.460;5.710;2023-05-07T09:08:48;11.48;;;10.27;;
33022;SDS011;19390;51.460;5.710;2023-05-07T09:11:21;10.93;;;9.73;;
33022;SDS011;19390;51.460;5.710;2023-05-07T09:13:53;13.23;;;10.10;;
33022;SDS011;19390;51.460;5.710;2023-05-07T09:16:21;13.93;;;9.65;;
33022;SDS011;19390;51.460;5.710;2023-05-07T09:18:48;10.90;;;9.57;;
33022;SDS011;19390;51.460;5.710;2023-05-07T09:21:17;12.13;;;10.93;;
33022;SDS011;19390;51.460;5.710;2023-05-07T09:23:43;12.85;;;11.23;;
33022;SDS011;19390;51.460;5.710;2023-05-07T09:26:09;10.43;;;9.32;;
33022;SDS011;19390;51.460;5.710;2023-05-07T09:28:43;15.00;;;9.80;;
33022;SDS011;19390;51.460;5.710;2023-05-07T09:31:09;11.65;;;10.05;;
33022;SDS011;19390;51.460;5.710;2023-05-07T09:33:36;13.27;;;10.55;;
33022;SDS011;19390;51.460;5.710;2023-05-07T09:36:03;11.93;;;9.07;;
33022;SDS011;19390;51.460;5.710;2023-05-07T09:38:29;11.50;;;10.23;;
33022;SDS011;19390;51.460;5.710;2023-05-07T09:43:36;11.43;;;9.05;;
33022;SDS011;19390;51.460;5.710;2023-05-07T09:46:03;10.55;;;9.52;;
33022;SDS011;19390;51.460;5.710;2023-05-07T09:48:35;11.63;;;9.38;;
33022;SDS011;19390;51.460;5.710;2023-05-07T09:51:04;12.32;;;9.50;;
33022;SDS011;19390;51.460;5.710;2023-05-07T09:56:02;14.18;;;9.50;;
33022;SDS011;19390;51.460;5.710;2023-05-07T09:58:29;11.60;;;10.40;;
33022;SDS011;19390;51.460;5.710;2023-05-07T10:00:56;11.57;;;9.02;;
33022;SDS011;19390;51.460;5.710;2023-05-07T10:03:22;10.25;;;9.25;;
33022;SDS011;19390;51.460;5.710;2023-05-07T10:05:51;9.63;;;8.65;;
33022;SDS011;19390;51.460;5.710;2023-05-07T10:08:17;12.88;;;8.20;;
33022;SDS011;19390;51.460;5.710;2023-05-07T10:10:44;9.32;;;8.23;;
33022;SDS011;19390;51.460;5.710;2023-05-07T10:13:11;10.00;;;7.65;;
33022;SDS011;19390;51.460;5.710;2023-05-07T10:15:37;11.80;;;8.05;;
33022;SDS011;19390;51.460;5.710;2023-05-07T10:18:03;7.35;;;6.70;;
33022;SDS011;19390;51.460;5.710;2023-05-07T10:20:31;11.05;;;8.02;;
33022;SDS011;19390;51.460;5.710;2023-05-07T10:22:58;12.38;;;9.43;;
33022;SDS011;19390;51.460;5.710;2023-05-07T10:25:25;11.00;;;7.38;;
33022;SDS011;19390;51.460;5.710;2023-05-07T10:27:57;7.45;;;6.47;;
33022;SDS011;19390;51.460;5.710;2023-05-07T10:30:35;7.85;;;6.40;;
33022;SDS011;19390;51.460;5.710;2023-05-07T10:33:06;7.40;;;6.70;;
33022;SDS011;19390;51.460;5.710;2023-05-07T10:35:40;8.18;;;6.95;;
33022;SDS011;19390;51.460;5.710;2023-05-07T10:38:07;7.57;;;6.88;;
33022;SDS011;19390;51.460;5.710;2023-05-07T10:40:34;6.55;;;5.43;;
33022;SDS011;19390;51.460;5.710;2023-05-07T10:43:00;11.18;;;6.10;;
33022;SDS011;19390;51.460;5.710;2023-05-07T10:45:30;10.20;;;6.68;;
33022;SDS011;19390;51.460;5.710;2023-05-07T10:48:15;7.45;;;6.03;;
33022;SDS011;19390;51.460;5.710;2023-05-07T10:50:44;8.52;;;6.78;;
33022;SDS011;19390;51.460;5.710;2023-05-07T10:55:41;8.32;;;6.55;;
33022;SDS011;19390;51.460;5.710;2023-05-07T10:58:27;7.78;;;6.10;;
33022;SDS011;19390;51.460;5.710;2023-05-07T11:01:00;8.50;;;6.60;;
33022;SDS011;19390;51.460;5.710;2023-05-07T11:03:27;7.18;;;6.20;;
33022;SDS011;19390;51.460;5.710;2023-05-07T11:06:09;7.93;;;6.40;;
33022;SDS011;19390;51.460;5.710;2023-05-07T11:08:52;7.28;;;6.57;;
33022;SDS011;19390;51.460;5.710;2023-05-07T11:14:09;8.27;;;5.22;;
33022;SDS011;19390;51.460;5.710;2023-05-07T11:16:35;5.40;;;4.72;;
33022;SDS011;19390;51.460;5.710;2023-05-07T11:19:03;5.47;;;4.80;;
33022;SDS011;19390;51.460;5.710;2023-05-07T11:21:38;8.15;;;5.25;;
33022;SDS011;19390;51.460;5.710;2023-05-07T11:24:09;7.97;;;5.25;;
33022;SDS011;19390;51.460;5.710;2023-05-07T11:26:42;7.95;;;6.00;;
33022;SDS011;19390;51.460;5.710;2023-05-07T11:29:10;8.85;;;5.90;;
33022;SDS011;19390;51.460;5.710;2023-05-07T11:31:42;6.90;;;5.18;;
33022;SDS011;19390;51.460;5.710;2023-05-07T11:34:08;7.07;;;5.35;;
33022;SDS011;19390;51.460;5.710;2023-05-07T11:36:34;5.82;;;4.80;;
33022;SDS011;19390;51.460;5.710;2023-05-07T11:39:22;3.45;;;3.15;;
33022;SDS011;19390;51.460;5.710;2023-05-07T11:41:57;5.43;;;4.43;;
33022;SDS011;19390;51.460;5.710;2023-05-07T11:44:45;6.20;;;4.47;;
33022;SDS011;19390;51.460;5.710;2023-05-07T11:47:19;6.82;;;4.60;;
33022;SDS011;19390;51.460;5.710;2023-05-07T11:49:49;7.15;;;4.32;;
33022;SDS011;19390;51.460;5.710;2023-05-07T11:52:16;7.72;;;4.50;;
33022;SDS011;19390;51.460;5.710;2023-05-07T11:57:16;6.53;;;4.85;;
33022;SDS011;19390;51.460;5.710;2023-05-07T11:59:42;8.80;;;4.70;;
33022;SDS011;19390;51.460;5.710;2023-05-07T12:02:13;7.53;;;4.72;;
33022;SDS011;19390;51.460;5.710;2023-05-07T12:04:40;8.60;;;4.72;;
33022;SDS011;19390;51.460;5.710;2023-05-07T12:07:11;5.78;;;4.20;;
33022;SDS011;19390;51.460;5.710;2023-05-07T12:09:41;4.82;;;2.50;;
33022;SDS011;19390;51.460;5.710;2023-05-07T12:12:07;4.70;;;3.83;;
33022;SDS011;19390;51.460;5.710;2023-05-07T12:14:37;4.38;;;3.88;;
33022;SDS011;19390;51.460;5.710;2023-05-07T12:17:07;8.05;;;4.85;;
33022;SDS011;19390;51.460;5.710;2023-05-07T12:19:34;7.60;;;4.25;;
33022;SDS011;19390;51.460;5.710;2023-05-07T12:22:01;9.90;;;4.22;;
33022;SDS011;19390;51.460;5.710;2023-05-07T12:24:28;5.97;;;3.78;;
33022;SDS011;19390;51.460;5.710;2023-05-07T12:26:54;5.97;;;4.13;;
33022;SDS011;19390;51.460;5.710;2023-05-07T12:29:23;5.50;;;3.60;;
33022;SDS011;19390;51.460;5.710;2023-05-07T12:31:49;9.15;;;4.22;;
33022;SDS011;19390;51.460;5.710;2023-05-07T12:34:15;7.45;;;4.05;;
33022;SDS011;19390;51.460;5.710;2023-05-07T12:36:41;4.93;;;4.00;;
33022;SDS011;19390;51.460;5.710;2023-05-07T12:39:07;4.05;;;3.30;;
33022;SDS011;19390;51.460;5.710;2023-05-07T12:41:53;5.57;;;3.20;;
33022;SDS011;19390;51.460;5.710;2023-05-07T12:44:23;6.65;;;4.47;;
33022;SDS011;19390;51.460;5.710;2023-05-07T12:46:49;7.40;;;4.18;;
33022;SDS011;19390;51.460;5.710;2023-05-07T12:49:15;5.63;;;3.38;;
33022;SDS011;19390;51.460;5.710;2023-05-07T12:51:40;4.05;;;2.70;;
33022;SDS011;19390;51.460;5.710;2023-05-07T12:54:06;5.20;;;2.95;;
33022;SDS011;19390;51.460;5.710;2023-05-07T12:56:31;5.70;;;2.95;;
33022;SDS011;19390;51.460;5.710;2023-05-07T12:59:00;6.07;;;3.42;;
33022;SDS011;19390;51.460;5.710;2023-05-07T13:01:29;6.80;;;3.15;;
33022;SDS011;19390;51.460;5.710;2023-05-07T13:03:56;3.75;;;2.97;;
33022;SDS011;19390;51.460;5.710;2023-05-07T13:06:26;6.93;;;3.00;;
33022;SDS011;19390;51.460;5.710;2023-05-07T13:08:51;7.15;;;3.60;;
33022;SDS011;19390;51.460;5.710;2023-05-07T13:11:17;5.30;;;3.50;;
33022;SDS011;19390;51.460;5.710;2023-05-07T13:13:43;7.35;;;3.50;;
33022;SDS011;19390;51.460;5.710;2023-05-07T13:16:10;4.03;;;2.83;;
33022;SDS011;19390;51.460;5.710;2023-05-07T13:18:37;10.02;;;2.88;;
33022;SDS011;19390;51.460;5.710;2023-05-07T13:21:03;7.20;;;3.80;;
33022;SDS011;19390;51.460;5.710;2023-05-07T13:23:29;5.78;;;3.40;;
33022;SDS011;19390;51.460;5.710;2023-05-07T13:25:55;6.32;;;3.35;;
33022;SDS011;19390;51.460;5.710;2023-05-07T13:28:21;6.57;;;3.53;;
33022;SDS011;19390;51.460;5.710;2023-05-07T13:30:47;9.52;;;4.15;;
33022;SDS011;19390;51.460;5.710;2023-05-07T13:33:13;13.73;;;5.25;;
33022;SDS011;19390;51.460;5.710;2023-05-07T13:35:38;12.10;;;5.70;;
33022;SDS011;19390;51.460;5.710;2023-05-07T13:38:04;7.32;;;3.95;;
33022;SDS011;19390;51.460;5.710;2023-05-07T13:40:30;6.80;;;3.72;;
33022;SDS011;19390;51.460;5.710;2023-05-07T13:42:58;6.15;;;3.38;;
33022;SDS011;19390;51.460;5.710;2023-05-07T13:45:26;7.20;;;3.42;;
33022;SDS011;19390;51.460;5.710;2023-05-07T13:47:54;5.13;;;2.60;;
33022;SDS011;19390;51.460;5.710;2023-05-07T13:50:20;5.80;;;2.67;;
33022;SDS011;19390;51.460;5.710;2023-05-07T13:52:45;4.68;;;2.78;;
33022;SDS011;19390;51.460;5.710;2023-05-07T13:55:15;6.80;;;2.95;;
33022;SDS011;19390;51.460;5.710;2023-05-07T13:57:42;7.78;;;2.95;;
33022;SDS011;19390;51.460;5.710;2023-05-07T14:00:08;6.57;;;3.10;;
33022;SDS011;19390;51.460;5.710;2023-05-07T14:02:34;4.93;;;3.33;;
33022;SDS011;19390;51.460;5.710;2023-05-07T14:05:00;5.47;;;3.45;;
33022;SDS011;19390;51.460;5.710;2023-05-07T14:07:25;7.57;;;3.70;;
33022;SDS011;19390;51.460;5.710;2023-05-07T14:09:51;8.48;;;3.70;;
33022;SDS011;19390;51.460;5.710;2023-05-07T14:12:17;11.80;;;4.78;;
33022;SDS011;19390;51.460;5.710;2023-05-07T14:14:42;10.35;;;4.55;;
33022;SDS011;19390;51.460;5.710;2023-05-07T14:17:08;11.07;;;4.97;;
33022;SDS011;19390;51.460;5.710;2023-05-07T14:19:34;6.55;;;4.75;;
33022;SDS011;19390;51.460;5.710;2023-05-07T14:21:59;7.65;;;3.80;;
33022;SDS011;19390;51.460;5.710;2023-05-07T14:24:25;8.90;;;4.10;;
33022;SDS011;19390;51.460;5.710;2023-05-07T14:26:50;8.82;;;4.20;;
33022;SDS011;19390;51.460;5.710;2023-05-07T14:29:16;7.85;;;5.03;;
33022;SDS011;19390;51.460;5.710;2023-05-07T14:31:44;7.78;;;4.68;;
33022;SDS011;19390;51.460;5.710;2023-05-07T14:34:10;5.88;;;4.20;;
33022;SDS011;19390;51.460;5.710;2023-05-07T14:36:35;8.88;;;4.75;;
33022;SDS011;19390;51.460;5.710;2023-05-07T14:39:02;7.00;;;4.57;;
33022;SDS011;19390;51.460;5.710;2023-05-07T14:41:28;7.40;;;4.13;;